createdAt,value
2022-11-15T00:26:33.821Z,997.9
2022-11-15T00:55:45.471Z,997.74
2022-11-15T01:24:53.093Z,997.58
2022-11-15T01:54:04.511Z,997.23
2022-11-15T02:23:11.184Z,997.07
2022-11-15T02:52:16.831Z,996.7
2022-11-15T03:21:23.989Z,996.62
2022-11-15T03:50:33.279Z,996.67
2022-11-15T04:19:40.710Z,996.5
2022-11-15T04:48:45.136Z,996.31
2022-11-15T05:17:48.081Z,996.34
2022-11-15T05:46:46.307Z,996.12
2022-11-15T06:15:43.159Z,996.01
2022-11-15T06:44:41.549Z,996.01
2022-11-15T07:13:46.917Z,996.08
2022-11-15T07:42:58.152Z,996.01
2022-11-15T08:12:06.540Z,995.89
2022-11-15T08:41:16.855Z,995.9
2022-11-15T09:10:28.892Z,995.68
2022-11-15T09:39:40.034Z,995.93
2022-11-15T10:08:47.731Z,995.67
2022-11-15T10:38:02.809Z,995.13
2022-11-15T11:07:13.131Z,994.46
2022-11-15T11:36:17.132Z,994.13
2022-11-15T12:05:28.181Z,993.78
2022-11-15T12:34:38.761Z,993.01
2022-11-15T13:03:50.614Z,992.5
2022-11-15T13:33:00.493Z,992.18
2022-11-15T14:02:03.996Z,991.72
2022-11-15T14:31:03.605Z,991.19
2022-11-15T15:00:11.787Z,990.82
2022-11-15T15:29:21.098Z,990.51
2022-11-15T15:58:27.988Z,990.33
2022-11-15T16:27:40.418Z,990.27
2022-11-15T16:56:43.654Z,990.02
2022-11-15T17:25:51.085Z,989.84
2022-11-15T17:54:55.503Z,989.87
2022-11-15T18:24:07.505Z,989.58
2022-11-15T18:53:09.305Z,989.42
2022-11-15T19:22:15.105Z,988.95
2022-11-15T19:51:23.595Z,988.79
2022-11-15T20:20:28.125Z,988.8
2022-11-15T20:49:29.070Z,988.82
2022-11-15T21:18:26.354Z,988.62
2022-11-15T21:47:29.436Z,988.61
2022-11-15T22:16:34.776Z,988.41
2022-11-15T22:45:39.256Z,988.2
2022-11-15T23:14:51.967Z,987.83
2022-11-15T23:43:58.835Z,987.91
